Terminal Aerodrome Forecast
Issued by NWS

Home | Current Version | Previous Version | Text Only | Print | Product List | Glossary On
Versions: 1 2 3 4 5 6 7 8 9 10 11 12 13 14 15 16 17 18 19 20 21 22 23
876
FTUS43 KDLH 170531
TAFHIB
TAF
KHIB 170531Z 1706/1806 20009KT P6SM OVC250 WS020/24038KT
     FM170700 20007KT P6SM VCSH OVC035
      TEMPO 1708/1712 6SM -SN OVC025
     FM171300 27007KT P6SM BKN070
     FM171800 28012KT P6SM BKN040
     FM180000 28009KT P6SM FEW250=

USA.gov is the U.S. government's official web portal to all federal, state and local government web resources and services.